sensor_id;sensor_type;location;lat;lon;timestamp;P1;durP1;ratioP1;P2;durP2;ratioP2
2824;SDS011;1420;51.324;12.344;2023-02-12T00:00:44;57.92;;;35.38;;
2824;SDS011;1420;51.324;12.344;2023-02-12T00:03:12;43.35;;;17.68;;
2824;SDS011;1420;51.324;12.344;2023-02-12T00:05:39;46.12;;;23.77;;
2824;SDS011;1420;51.324;12.344;2023-02-12T00:08:08;44.03;;;24.33;;
2824;SDS011;1420;51.324;12.344;2023-02-12T00:10:35;49.33;;;25.52;;
2824;SDS011;1420;51.324;12.344;2023-02-12T00:13:02;45.83;;;23.28;;
2824;SDS011;1420;51.324;12.344;2023-02-12T00:15:29;41.55;;;23.43;;
2824;SDS011;1420;51.324;12.344;2023-02-12T00:17:56;40.78;;;26.88;;
2824;SDS011;1420;51.324;12.344;2023-02-12T00:20:23;51.38;;;38.22;;
2824;SDS011;1420;51.324;12.344;2023-02-12T00:22:51;42.92;;;23.22;;
2824;SDS011;1420;51.324;12.344;2023-02-12T00:25:18;49.47;;;33.82;;
2824;SDS011;1420;51.324;12.344;2023-02-12T00:27:45;38.57;;;17.73;;
2824;SDS011;1420;51.324;12.344;2023-02-12T00:30:13;49.97;;;26.05;;
2824;SDS011;1420;51.324;12.344;2023-02-12T00:32:40;54.72;;;28.43;;
2824;SDS011;1420;51.324;12.344;2023-02-12T00:35:08;46.43;;;22.98;;
2824;SDS011;1420;51.324;12.344;2023-02-12T00:37:35;42.58;;;25.57;;
2824;SDS011;1420;51.324;12.344;2023-02-12T00:40:02;52.57;;;32.82;;
2824;SDS011;1420;51.324;12.344;2023-02-12T00:42:29;42.00;;;25.43;;
2824;SDS011;1420;51.324;12.344;2023-02-12T00:44:57;45.48;;;28.48;;
2824;SDS011;1420;51.324;12.344;2023-02-12T00:47:24;46.00;;;22.37;;
2824;SDS011;1420;51.324;12.344;2023-02-12T00:49:51;52.83;;;30.37;;
2824;SDS011;1420;51.324;12.344;2023-02-12T00:52:18;46.50;;;25.62;;
2824;SDS011;1420;51.324;12.344;2023-02-12T00:54:45;43.58;;;22.28;;
2824;SDS011;1420;51.324;12.344;2023-02-12T00:57:13;55.22;;;39.07;;
2824;SDS011;1420;51.324;12.344;2023-02-12T00:59:40;42.65;;;23.58;;
2824;SDS011;1420;51.324;12.344;2023-02-12T01:02:07;44.07;;;20.55;;
2824;SDS011;1420;51.324;12.344;2023-02-12T01:04:34;42.23;;;17.13;;
2824;SDS011;1420;51.324;12.344;2023-02-12T01:07:01;48.13;;;37.12;;
2824;SDS011;1420;51.324;12.344;2023-02-12T01:09:29;44.67;;;19.92;;
2824;SDS011;1420;51.324;12.344;2023-02-12T01:11:56;44.58;;;24.00;;
2824;SDS011;1420;51.324;12.344;2023-02-12T01:14:24;39.23;;;19.42;;
2824;SDS011;1420;51.324;12.344;2023-02-12T01:16:51;43.38;;;26.58;;
2824;SDS011;1420;51.324;12.344;2023-02-12T01:19:18;37.65;;;19.50;;
2824;SDS011;1420;51.324;12.344;2023-02-12T01:21:46;42.07;;;24.77;;
2824;SDS011;1420;51.324;12.344;2023-02-12T01:24:14;40.75;;;20.97;;
2824;SDS011;1420;51.324;12.344;2023-02-12T01:26:42;45.55;;;21.30;;
2824;SDS011;1420;51.324;12.344;2023-02-12T01:29:10;51.30;;;29.68;;
2824;SDS011;1420;51.324;12.344;2023-02-12T01:31:38;48.98;;;23.47;;
2824;SDS011;1420;51.324;12.344;2023-02-12T01:34:06;42.08;;;17.08;;
2824;SDS011;1420;51.324;12.344;2023-02-12T01:36:34;54.52;;;35.32;;
2824;SDS011;1420;51.324;12.344;2023-02-12T01:39:03;47.08;;;24.20;;
2824;SDS011;1420;51.324;12.344;2023-02-12T01:41:31;48.10;;;33.72;;
2824;SDS011;1420;51.324;12.344;2023-02-12T01:44:05;43.70;;;28.43;;
2824;SDS011;1420;51.324;12.344;2023-02-12T01:46:33;39.67;;;20.38;;
2824;SDS011;1420;51.324;12.344;2023-02-12T01:49:00;39.25;;;20.28;;
2824;SDS011;1420;51.324;12.344;2023-02-12T01:51:27;45.85;;;27.68;;
2824;SDS011;1420;51.324;12.344;2023-02-12T01:53:54;43.05;;;32.97;;
2824;SDS011;1420;51.324;12.344;2023-02-12T01:56:21;49.67;;;39.33;;
2824;SDS011;1420;51.324;12.344;2023-02-12T01:58:49;41.27;;;21.62;;
2824;SDS011;1420;51.324;12.344;2023-02-12T02:01:17;41.82;;;18.52;;
2824;SDS011;1420;51.324;12.344;2023-02-12T02:03:44;46.73;;;26.25;;
2824;SDS011;1420;51.324;12.344;2023-02-12T02:06:13;39.07;;;16.18;;
2824;SDS011;1420;51.324;12.344;2023-02-12T02:08:39;38.18;;;16.25;;
2824;SDS011;1420;51.324;12.344;2023-02-12T02:11:06;39.02;;;19.63;;
2824;SDS011;1420;51.324;12.344;2023-02-12T02:13:39;42.13;;;18.63;;
2824;SDS011;1420;51.324;12.344;2023-02-12T02:16:17;40.43;;;24.30;;
2824;SDS011;1420;51.324;12.344;2023-02-12T02:18:54;42.92;;;23.23;;
2824;SDS011;1420;51.324;12.344;2023-02-12T02:21:27;42.05;;;20.52;;
2824;SDS011;1420;51.324;12.344;2023-02-12T02:26:27;86.92;;;77.32;;
2824;SDS011;1420;51.324;12.344;2023-02-12T02:29:03;49.40;;;32.77;;
2824;SDS011;1420;51.324;12.344;2023-02-12T02:31:36;33.45;;;13.65;;
2824;SDS011;1420;51.324;12.344;2023-02-12T02:34:17;43.55;;;23.52;;
2824;SDS011;1420;51.324;12.344;2023-02-12T02:36:48;36.97;;;16.08;;
2824;SDS011;1420;51.324;12.344;2023-02-12T02:39:16;39.58;;;18.03;;
2824;SDS011;1420;51.324;12.344;2023-02-12T02:41:43;39.15;;;15.67;;
2824;SDS011;1420;51.324;12.344;2023-02-12T02:44:21;37.03;;;22.92;;
2824;SDS011;1420;51.324;12.344;2023-02-12T02:46:49;37.65;;;18.10;;
2824;SDS011;1420;51.324;12.344;2023-02-12T02:49:18;38.08;;;16.27;;
2824;SDS011;1420;51.324;12.344;2023-02-12T02:51:46;43.80;;;19.20;;
2824;SDS011;1420;51.324;12.344;2023-02-12T02:54:15;39.63;;;21.33;;
2824;SDS011;1420;51.324;12.344;2023-02-12T02:56:43;36.92;;;14.67;;
2824;SDS011;1420;51.324;12.344;2023-02-12T02:59:11;40.82;;;19.22;;
2824;SDS011;1420;51.324;12.344;2023-02-12T03:01:41;40.08;;;18.88;;
2824;SDS011;1420;51.324;12.344;2023-02-12T03:04:13;44.98;;;19.20;;
2824;SDS011;1420;51.324;12.344;2023-02-12T03:06:43;31.03;;;13.58;;
2824;SDS011;1420;51.324;12.344;2023-02-12T03:09:27;33.47;;;14.80;;
2824;SDS011;1420;51.324;12.344;2023-02-12T03:11:54;37.03;;;16.77;;
2824;SDS011;1420;51.324;12.344;2023-02-12T03:14:24;33.85;;;14.05;;
2824;SDS011;1420;51.324;12.344;2023-02-12T03:16:56;32.40;;;13.97;;
2824;SDS011;1420;51.324;12.344;2023-02-12T03:19:25;44.22;;;28.48;;
2824;SDS011;1420;51.324;12.344;2023-02-12T03:21:54;33.48;;;16.02;;
2824;SDS011;1420;51.324;12.344;2023-02-12T03:24:23;33.82;;;16.78;;
2824;SDS011;1420;51.324;12.344;2023-02-12T03:26:50;38.05;;;21.22;;
2824;SDS011;1420;51.324;12.344;2023-02-12T03:29:16;35.27;;;17.50;;
2824;SDS011;1420;51.324;12.344;2023-02-12T03:31:53;36.13;;;14.57;;
2824;SDS011;1420;51.324;12.344;2023-02-12T03:34:23;38.15;;;14.58;;
2824;SDS011;1420;51.324;12.344;2023-02-12T03:36:53;34.17;;;11.97;;
2824;SDS011;1420;51.324;12.344;2023-02-12T03:39:30;35.53;;;14.65;;
2824;SDS011;1420;51.324;12.344;2023-02-12T03:42:03;34.60;;;15.08;;
2824;SDS011;1420;51.324;12.344;2023-02-12T03:44:33;35.57;;;20.95;;
2824;SDS011;1420;51.324;12.344;2023-02-12T03:47:01;37.78;;;17.30;;
2824;SDS011;1420;51.324;12.344;2023-02-12T03:49:32;33.37;;;15.37;;
2824;SDS011;1420;51.324;12.344;2023-02-12T03:51:58;38.10;;;17.05;;
2824;SDS011;1420;51.324;12.344;2023-02-12T03:54:25;39.00;;;14.92;;
2824;SDS011;1420;51.324;12.344;2023-02-12T03:56:54;34.38;;;13.28;;
2824;SDS011;1420;51.324;12.344;2023-02-12T03:59:21;31.98;;;15.85;;
2824;SDS011;1420;51.324;12.344;2023-02-12T04:01:48;32.47;;;11.50;;
2824;SDS011;1420;51.324;12.344;2023-02-12T04:04:15;34.05;;;12.60;;
2824;SDS011;1420;51.324;12.344;2023-02-12T04:06:43;35.35;;;14.03;;
2824;SDS011;1420;51.324;12.344;2023-02-12T04:09:10;32.42;;;14.92;;
2824;SDS011;1420;51.324;12.344;2023-02-12T04:14:19;31.82;;;13.12;;
2824;SDS011;1420;51.324;12.344;2023-02-12T04:19:34;29.62;;;11.80;;
2824;SDS011;1420;51.324;12.344;2023-02-12T04:22:10;29.43;;;11.37;;
2824;SDS011;1420;51.324;12.344;2023-02-12T04:24:40;30.70;;;11.60;;
2824;SDS011;1420;51.324;12.344;2023-02-12T04:27:07;27.68;;;12.30;;
2824;SDS011;1420;51.324;12.344;2023-02-12T04:29:44;28.88;;;10.97;;
2824;SDS011;1420;51.324;12.344;2023-02-12T04:32:11;29.37;;;11.72;;
2824;SDS011;1420;51.324;12.344;2023-02-12T04:34:43;30.55;;;11.42;;
2824;SDS011;1420;51.324;12.344;2023-02-12T04:37:25;30.75;;;11.22;;
2824;SDS011;1420;51.324;12.344;2023-02-12T04:39:54;33.15;;;10.93;;
2824;SDS011;1420;51.324;12.344;2023-02-12T04:42:21;32.42;;;12.78;;
2824;SDS011;1420;51.324;12.344;2023-02-12T04:44:48;30.83;;;9.48;;
2824;SDS011;1420;51.324;12.344;2023-02-12T04:47:15;30.73;;;10.07;;
2824;SDS011;1420;51.324;12.344;2023-02-12T04:49:43;33.22;;;13.33;;
2824;SDS011;1420;51.324;12.344;2023-02-12T04:52:10;30.13;;;10.23;;
2824;SDS011;1420;51.324;12.344;2023-02-12T04:54:37;30.33;;;10.32;;
2824;SDS011;1420;51.324;12.344;2023-02-12T04:57:04;32.78;;;11.85;;
2824;SDS011;1420;51.324;12.344;2023-02-12T04:59:31;30.05;;;12.62;;
2824;SDS011;1420;51.324;12.344;2023-02-12T05:01:59;32.03;;;12.27;;
2824;SDS011;1420;51.324;12.344;2023-02-12T05:04:26;28.53;;;10.83;;
2824;SDS011;1420;51.324;12.344;2023-02-12T05:06:53;27.02;;;9.42;;
2824;SDS011;1420;51.324;12.344;2023-02-12T05:09:20;28.98;;;12.35;;
2824;SDS011;1420;51.324;12.344;2023-02-12T05:11:48;33.52;;;11.67;;
2824;SDS011;1420;51.324;12.344;2023-02-12T05:14:15;28.40;;;9.63;;
2824;SDS011;1420;51.324;12.344;2023-02-12T05:16:43;27.42;;;10.00;;
2824;SDS011;1420;51.324;12.344;2023-02-12T05:19:11;31.73;;;11.48;;
2824;SDS011;1420;51.324;12.344;2023-02-12T05:21:39;28.57;;;9.28;;
2824;SDS011;1420;51.324;12.344;2023-02-12T05:24:06;34.25;;;12.05;;
2824;SDS011;1420;51.324;12.344;2023-02-12T05:26:34;28.88;;;10.07;;
2824;SDS011;1420;51.324;12.344;2023-02-12T05:29:01;29.05;;;9.45;;
2824;SDS011;1420;51.324;12.344;2023-02-12T05:31:28;31.88;;;10.60;;
2824;SDS011;1420;51.324;12.344;2023-02-12T05:33:56;30.27;;;10.15;;
2824;SDS011;1420;51.324;12.344;2023-02-12T05:36:23;27.78;;;9.17;;
2824;SDS011;1420;51.324;12.344;2023-02-12T05:38:50;26.98;;;10.75;;
2824;SDS011;1420;51.324;12.344;2023-02-12T05:41:19;28.95;;;10.85;;
2824;SDS011;1420;51.324;12.344;2023-02-12T05:43:45;28.13;;;9.92;;
2824;SDS011;1420;51.324;12.344;2023-02-12T05:46:12;29.82;;;11.20;;
2824;SDS011;1420;51.324;12.344;2023-02-12T05:48:39;27.47;;;12.48;;
2824;SDS011;1420;51.324;12.344;2023-02-12T05:51:07;29.52;;;10.85;;
2824;SDS011;1420;51.324;12.344;2023-02-12T05:53:34;29.78;;;11.07;;
2824;SDS011;1420;51.324;12.344;2023-02-12T05:56:06;30.23;;;10.03;;
2824;SDS011;1420;51.324;12.344;2023-02-12T05:58:51;24.85;;;10.60;;
2824;SDS011;1420;51.324;12.344;2023-02-12T06:01:19;28.63;;;12.13;;
2824;SDS011;1420;51.324;12.344;2023-02-12T06:03:46;31.52;;;10.72;;
2824;SDS011;1420;51.324;12.344;2023-02-12T06:06:14;33.18;;;10.70;;
2824;SDS011;1420;51.324;12.344;2023-02-12T06:08:42;27.52;;;9.20;;
2824;SDS011;1420;51.324;12.344;2023-02-12T06:11:12;31.23;;;11.67;;
2824;SDS011;1420;51.324;12.344;2023-02-12T06:13:38;31.47;;;10.25;;
2824;SDS011;1420;51.324;12.344;2023-02-12T06:16:06;29.13;;;12.45;;
2824;SDS011;1420;51.324;12.344;2023-02-12T06:18:34;30.48;;;10.52;;
2824;SDS011;1420;51.324;12.344;2023-02-12T06:21:02;23.97;;;9.58;;
2824;SDS011;1420;51.324;12.344;2023-02-12T06:23:29;29.75;;;14.38;;
2824;SDS011;1420;51.324;12.344;2023-02-12T06:25:56;28.42;;;10.62;;
2824;SDS011;1420;51.324;12.344;2023-02-12T06:28:24;29.13;;;11.47;;
2824;SDS011;1420;51.324;12.344;2023-02-12T06:30:51;26.28;;;10.40;;
2824;SDS011;1420;51.324;12.344;2023-02-12T06:33:18;27.97;;;10.00;;
2824;SDS011;1420;51.324;12.344;2023-02-12T06:35:45;31.57;;;13.23;;
2824;SDS011;1420;51.324;12.344;2023-02-12T06:38:12;31.87;;;14.88;;
2824;SDS011;1420;51.324;12.344;2023-02-12T06:40:40;34.07;;;15.15;;
2824;SDS011;1420;51.324;12.344;2023-02-12T06:43:08;28.22;;;11.45;;
2824;SDS011;1420;51.324;12.344;2023-02-12T06:45:36;39.47;;;11.85;;
2824;SDS011;1420;51.324;12.344;2023-02-12T06:48:04;34.55;;;11.07;;
2824;SDS011;1420;51.324;12.344;2023-02-12T06:50:31;28.45;;;11.73;;
2824;SDS011;1420;51.324;12.344;2023-02-12T06:52:58;30.60;;;10.63;;
2824;SDS011;1420;51.324;12.344;2023-02-12T06:55:26;27.70;;;12.87;;
2824;SDS011;1420;51.324;12.344;2023-02-12T06:57:54;27.58;;;12.73;;
2824;SDS011;1420;51.324;12.344;2023-02-12T07:00:22;24.15;;;8.98;;
2824;SDS011;1420;51.324;12.344;2023-02-12T07:02:51;29.40;;;11.92;;
2824;SDS011;1420;51.324;12.344;2023-02-12T07:05:18;31.98;;;12.30;;
2824;SDS011;1420;51.324;12.344;2023-02-12T07:07:45;32.83;;;14.22;;
2824;SDS011;1420;51.324;12.344;2023-02-12T07:10:13;30.22;;;12.27;;
2824;SDS011;1420;51.324;12.344;2023-02-12T07:12:40;28.85;;;16.98;;
2824;SDS011;1420;51.324;12.344;2023-02-12T07:15:07;31.40;;;10.87;;
2824;SDS011;1420;51.324;12.344;2023-02-12T07:17:35;28.98;;;10.93;;
2824;SDS011;1420;51.324;12.344;2023-02-12T07:20:03;27.90;;;13.47;;
2824;SDS011;1420;51.324;12.344;2023-02-12T07:22:29;31.98;;;11.72;;
2824;SDS011;1420;51.324;12.344;2023-02-12T07:24:57;26.97;;;11.35;;
2824;SDS011;1420;51.324;12.344;2023-02-12T07:27:25;30.42;;;10.40;;
2824;SDS011;1420;51.324;12.344;2023-02-12T07:29:53;29.62;;;10.78;;
2824;SDS011;1420;51.324;12.344;2023-02-12T07:32:21;29.67;;;10.85;;
2824;SDS011;1420;51.324;12.344;2023-02-12T07:34:49;25.22;;;10.82;;
2824;SDS011;1420;51.324;12.344;2023-02-12T07:37:17;28.43;;;12.47;;
2824;SDS011;1420;51.324;12.344;2023-02-12T07:39:45;30.08;;;12.67;;
2824;SDS011;1420;51.324;12.344;2023-02-12T07:42:13;27.87;;;11.23;;
2824;SDS011;1420;51.324;12.344;2023-02-12T07:44:41;28.35;;;9.85;;
2824;SDS011;1420;51.324;12.344;2023-02-12T07:47:08;25.45;;;9.87;;
2824;SDS011;1420;51.324;12.344;2023-02-12T07:49:35;25.68;;;10.07;;
2824;SDS011;1420;51.324;12.344;2023-02-12T07:52:03;27.02;;;9.55;;
2824;SDS011;1420;51.324;12.344;2023-02-12T07:54:32;29.85;;;9.43;;
2824;SDS011;1420;51.324;12.344;2023-02-12T07:56:59;28.92;;;11.82;;
2824;SDS011;1420;51.324;12.344;2023-02-12T07:59:27;23.33;;;8.37;;
2824;SDS011;1420;51.324;12.344;2023-02-12T08:01:55;26.27;;;9.90;;
2824;SDS011;1420;51.324;12.344;2023-02-12T08:04:23;25.30;;;9.82;;
2824;SDS011;1420;51.324;12.344;2023-02-12T08:06:50;33.32;;;9.80;;
2824;SDS011;1420;51.324;12.344;2023-02-12T08:09:18;28.42;;;10.25;;
2824;SDS011;1420;51.324;12.344;2023-02-12T08:11:44;25.65;;;10.37;;
2824;SDS011;1420;51.324;12.344;2023-02-12T08:14:11;26.42;;;12.32;;
2824;SDS011;1420;51.324;12.344;2023-02-12T08:16:38;27.55;;;11.23;;
2824;SDS011;1420;51.324;12.344;2023-02-12T08:19:06;26.70;;;11.23;;
2824;SDS011;1420;51.324;12.344;2023-02-12T08:21:34;28.18;;;11.05;;
2824;SDS011;1420;51.324;12.344;2023-02-12T08:24:01;30.30;;;10.88;;
2824;SDS011;1420;51.324;12.344;2023-02-12T08:26:30;26.45;;;9.70;;
2824;SDS011;1420;51.324;12.344;2023-02-12T08:28:58;28.80;;;9.93;;
2824;SDS011;1420;51.324;12.344;2023-02-12T08:31:29;28.83;;;10.45;;
2824;SDS011;1420;51.324;12.344;2023-02-12T08:33:56;29.32;;;13.02;;
2824;SDS011;1420;51.324;12.344;2023-02-12T08:36:24;31.77;;;12.75;;
2824;SDS011;1420;51.324;12.344;2023-02-12T08:38:52;30.73;;;13.65;;
2824;SDS011;1420;51.324;12.344;2023-02-12T08:41:22;27.38;;;11.22;;
2824;SDS011;1420;51.324;12.344;2023-02-12T08:43:49;30.63;;;10.77;;
2824;SDS011;1420;51.324;12.344;2023-02-12T08:46:17;38.17;;;16.92;;
2824;SDS011;1420;51.324;12.344;2023-02-12T08:48:43;30.13;;;12.35;;
2824;SDS011;1420;51.324;12.344;2023-02-12T08:51:14;32.22;;;12.75;;
2824;SDS011;1420;51.324;12.344;2023-02-12T08:53:41;27.25;;;11.20;;
2824;SDS011;1420;51.324;12.344;2023-02-12T08:56:08;31.95;;;11.08;;
2824;SDS011;1420;51.324;12.344;2023-02-12T08:58:35;27.38;;;10.15;;
2824;SDS011;1420;51.324;12.344;2023-02-12T09:01:02;31.88;;;13.33;;
2824;SDS011;1420;51.324;12.344;2023-02-12T09:03:29;33.75;;;14.37;;
2824;SDS011;1420;51.324;12.344;2023-02-12T09:05:56;34.17;;;14.17;;
2824;SDS011;1420;51.324;12.344;2023-02-12T09:08:24;33.15;;;14.15;;
2824;SDS011;1420;51.324;12.344;2023-02-12T09:10:51;32.68;;;16.95;;
2824;SDS011;1420;51.324;12.344;2023-02-12T09:13:18;29.75;;;14.32;;
2824;SDS011;1420;51.324;12.344;2023-02-12T09:15:45;32.75;;;13.12;;
2824;SDS011;1420;51.324;12.344;2023-02-12T09:18:13;26.65;;;10.83;;
2824;SDS011;1420;51.324;12.344;2023-02-12T09:20:41;28.07;;;10.25;;
2824;SDS011;1420;51.324;12.344;2023-02-12T09:23:09;29.05;;;10.30;;
2824;SDS011;1420;51.324;12.344;2023-02-12T09:25:39;32.63;;;12.27;;
2824;SDS011;1420;51.324;12.344;2023-02-12T09:28:06;31.72;;;12.20;;
2824;SDS011;1420;51.324;12.344;2023-02-12T09:30:34;39.57;;;14.52;;
2824;SDS011;1420;51.324;12.344;2023-02-12T09:33:01;35.27;;;16.25;;
2824;SDS011;1420;51.324;12.344;2023-02-12T09:35:28;28.98;;;12.77;;
2824;SDS011;1420;51.324;12.344;2023-02-12T09:37:55;29.53;;;13.77;;
2824;SDS011;1420;51.324;12.344;2023-02-12T09:40:30;29.47;;;11.68;;
2824;SDS011;1420;51.324;12.344;2023-02-12T09:43:10;25.70;;;8.70;;
2824;SDS011;1420;51.324;12.344;2023-02-12T09:45:41;29.98;;;10.45;;
2824;SDS011;1420;51.324;12.344;2023-02-12T09:48:13;30.80;;;11.45;;
2824;SDS011;1420;51.324;12.344;2023-02-12T09:50:46;28.80;;;11.83;;
2824;SDS011;1420;51.324;12.344;2023-02-12T09:53:14;32.78;;;11.22;;
2824;SDS011;1420;51.324;12.344;2023-02-12T09:55:40;29.73;;;10.12;;
2824;SDS011;1420;51.324;12.344;2023-02-12T09:58:11;26.08;;;11.75;;
2824;SDS011;1420;51.324;12.344;2023-02-12T10:00:36;27.30;;;11.20;;
2824;SDS011;1420;51.324;12.344;2023-02-12T10:03:04;29.58;;;13.42;;
2824;SDS011;1420;51.324;12.344;2023-02-12T10:05:31;28.53;;;10.90;;
2824;SDS011;1420;51.324;12.344;2023-02-12T10:08:04;28.23;;;11.73;;
2824;SDS011;1420;51.324;12.344;2023-02-12T10:13:36;30.73;;;11.32;;
2824;SDS011;1420;51.324;12.344;2023-02-12T10:15:49;29.72;;;11.82;;
2824;SDS011;1420;51.324;12.344;2023-02-12T10:18:26;26.52;;;12.57;;
2824;SDS011;1420;51.324;12.344;2023-02-12T10:20:56;32.87;;;18.90;;
2824;SDS011;1420;51.324;12.344;2023-02-12T10:26:00;27.62;;;12.75;;
2824;SDS011;1420;51.324;12.344;2023-02-12T10:28:30;26.97;;;11.00;;
2824;SDS011;1420;51.324;12.344;2023-02-12T10:30:59;35.58;;;22.68;;
2824;SDS011;1420;51.324;12.344;2023-02-12T10:33:44;26.85;;;14.25;;
2824;SDS011;1420;51.324;12.344;2023-02-12T10:36:17;27.07;;;12.25;;
2824;SDS011;1420;51.324;12.344;2023-02-12T10:38:44;25.35;;;12.13;;
2824;SDS011;1420;51.324;12.344;2023-02-12T10:41:10;27.85;;;12.92;;
2824;SDS011;1420;51.324;12.344;2023-02-12T10:43:38;26.70;;;13.63;;
2824;SDS011;1420;51.324;12.344;2023-02-12T10:46:05;31.27;;;10.80;;
2824;SDS011;1420;51.324;12.344;2023-02-12T10:48:34;28.37;;;11.62;;
2824;SDS011;1420;51.324;12.344;2023-02-12T10:51:19;30.02;;;13.10;;
2824;SDS011;1420;51.324;12.344;2023-02-12T10:53:43;25.78;;;12.68;;
2824;SDS011;1420;51.324;12.344;2023-02-12T10:56:12;26.02;;;9.67;;
2824;SDS011;1420;51.324;12.344;2023-02-12T10:58:50;22.68;;;8.93;;
2824;SDS011;1420;51.324;12.344;2023-02-12T11:01:23;23.55;;;10.68;;
2824;SDS011;1420;51.324;12.344;2023-02-12T11:03:55;24.12;;;9.08;;
2824;SDS011;1420;51.324;12.344;2023-02-12T11:06:23;20.55;;;7.78;;
2824;SDS011;1420;51.324;12.344;2023-02-12T11:08:50;26.18;;;11.22;;
2824;SDS011;1420;51.324;12.344;2023-02-12T11:11:20;20.52;;;7.90;;
2824;SDS011;1420;51.324;12.344;2023-02-12T11:13:55;23.85;;;9.67;;
2824;SDS011;1420;51.324;12.344;2023-02-12T11:16:26;22.68;;;7.15;;
2824;SDS011;1420;51.324;12.344;2023-02-12T11:18:57;22.60;;;7.95;;
2824;SDS011;1420;51.324;12.344;2023-02-12T11:21:27;24.52;;;8.75;;
2824;SDS011;1420;51.324;12.344;2023-02-12T11:23:54;24.72;;;8.82;;
2824;SDS011;1420;51.324;12.344;2023-02-12T11:26:23;25.05;;;10.60;;
2824;SDS011;1420;51.324;12.344;2023-02-12T11:28:53;25.53;;;8.50;;
2824;SDS011;1420;51.324;12.344;2023-02-12T11:31:30;22.55;;;7.48;;
2824;SDS011;1420;51.324;12.344;2023-02-12T11:36:48;24.77;;;10.45;;
2824;SDS011;1420;51.324;12.344;2023-02-12T11:39:18;29.55;;;10.18;;
2824;SDS011;1420;51.324;12.344;2023-02-12T11:41:49;32.33;;;11.57;;
2824;SDS011;1420;51.324;12.344;2023-02-12T11:44:18;43.88;;;21.47;;
2824;SDS011;1420;51.324;12.344;2023-02-12T11:46:46;34.75;;;13.42;;
2824;SDS011;1420;51.324;12.344;2023-02-12T11:49:22;34.22;;;10.50;;
2824;SDS011;1420;51.324;12.344;2023-02-12T11:51:52;32.65;;;11.98;;
2824;SDS011;1420;51.324;12.344;2023-02-12T11:54:21;30.12;;;11.75;;
2824;SDS011;1420;51.324;12.344;2023-02-12T11:56:47;29.50;;;11.27;;
2824;SDS011;1420;51.324;12.344;2023-02-12T11:59:26;27.65;;;10.22;;
2824;SDS011;1420;51.324;12.344;2023-02-12T12:01:51;23.35;;;9.50;;
2824;SDS011;1420;51.324;12.344;2023-02-12T12:04:19;24.37;;;9.67;;
2824;SDS011;1420;51.324;12.344;2023-02-12T12:07:19;26.48;;;9.23;;
2824;SDS011;1420;51.324;12.344;2023-02-12T12:09:34;22.95;;;8.68;;
2824;SDS011;1420;51.324;12.344;2023-02-12T12:12:03;28.75;;;12.60;;
2824;SDS011;1420;51.324;12.344;2023-02-12T12:14:30;26.50;;;12.15;;
2824;SDS011;1420;51.324;12.344;2023-02-12T12:17:01;31.92;;;15.77;;
2824;SDS011;1420;51.324;12.344;2023-02-12T12:19:36;30.02;;;10.45;;
2824;SDS011;1420;51.324;12.344;2023-02-12T12:22:17;23.40;;;9.50;;
2824;SDS011;1420;51.324;12.344;2023-02-12T12:24:52;26.00;;;9.98;;
2824;SDS011;1420;51.324;12.344;2023-02-12T12:27:21;30.35;;;11.25;;
2824;SDS011;1420;51.324;12.344;2023-02-12T12:30:06;44.47;;;17.20;;
2824;SDS011;1420;51.324;12.344;2023-02-12T12:32:34;28.15;;;13.62;;
2824;SDS011;1420;51.324;12.344;2023-02-12T12:35:01;32.18;;;10.15;;
2824;SDS011;1420;51.324;12.344;2023-02-12T12:37:34;26.10;;;11.62;;
2824;SDS011;1420;51.324;12.344;2023-02-12T12:40:06;31.67;;;13.62;;
2824;SDS011;1420;51.324;12.344;2023-02-12T12:45:27;31.43;;;11.20;;
2824;SDS011;1420;51.324;12.344;2023-02-12T12:48:08;30.35;;;9.90;;
2824;SDS011;1420;51.324;12.344;2023-02-12T12:53:26;33.97;;;13.25;;
2824;SDS011;1420;51.324;12.344;2023-02-12T12:56:08;35.12;;;13.72;;
2824;SDS011;1420;51.324;12.344;2023-02-12T12:58:54;27.48;;;10.93;;
2824;SDS011;1420;51.324;12.344;2023-02-12T13:01:41;33.75;;;14.03;;
2824;SDS011;1420;51.324;12.344;2023-02-12T13:04:15;36.00;;;13.57;;
2824;SDS011;1420;51.324;12.344;2023-02-12T13:06:46;30.22;;;11.05;;
2824;SDS011;1420;51.324;12.344;2023-02-12T13:09:16;36.75;;;14.80;;
2824;SDS011;1420;51.324;12.344;2023-02-12T13:14:34;33.27;;;14.33;;
2824;SDS011;1420;51.324;12.344;2023-02-12T13:17:12;32.88;;;13.73;;
2824;SDS011;1420;51.324;12.344;2023-02-12T13:19:41;28.47;;;13.20;;
2824;SDS011;1420;51.324;12.344;2023-02-12T13:22:16;37.45;;;16.10;;
2824;SDS011;1420;51.324;12.344;2023-02-12T13:24:44;37.63;;;16.60;;
2824;SDS011;1420;51.324;12.344;2023-02-12T13:27:25;47.27;;;19.75;;
2824;SDS011;1420;51.324;12.344;2023-02-12T13:29:52;35.70;;;14.90;;
2824;SDS011;1420;51.324;12.344;2023-02-12T13:32:26;37.67;;;13.48;;
2824;SDS011;1420;51.324;12.344;2023-02-12T13:34:54;33.90;;;13.15;;
2824;SDS011;1420;51.324;12.344;2023-02-12T13:37:37;32.73;;;13.63;;
2824;SDS011;1420;51.324;12.344;2023-02-12T13:40:06;28.10;;;9.80;;
2824;SDS011;1420;51.324;12.344;2023-02-12T13:42:36;32.85;;;12.23;;
2824;SDS011;1420;51.324;12.344;2023-02-12T13:45:13;25.43;;;9.78;;
2824;SDS011;1420;51.324;12.344;2023-02-12T13:47:37;33.78;;;16.97;;
2824;SDS011;1420;51.324;12.344;2023-02-12T13:50:06;26.57;;;11.23;;
2824;SDS011;1420;51.324;12.344;2023-02-12T13:52:51;29.98;;;9.80;;
2824;SDS011;1420;51.324;12.344;2023-02-12T13:55:20;30.40;;;10.28;;
2824;SDS011;1420;51.324;12.344;2023-02-12T14:03:25;30.60;;;12.03;;
2824;SDS011;1420;51.324;12.344;2023-02-12T14:08:35;32.68;;;12.08;;
2824;SDS011;1420;51.324;12.344;2023-02-12T14:11:02;29.88;;;10.52;;
2824;SDS011;1420;51.324;12.344;2023-02-12T14:13:28;31.65;;;13.55;;
2824;SDS011;1420;51.324;12.344;2023-02-12T14:15:56;32.27;;;11.37;;
2824;SDS011;1420;51.324;12.344;2023-02-12T14:18:27;28.82;;;10.53;;
2824;SDS011;1420;51.324;12.344;2023-02-12T14:23:48;32.22;;;14.23;;
2824;SDS011;1420;51.324;12.344;2023-02-12T14:26:17;27.68;;;11.57;;
2824;SDS011;1420;51.324;12.344;2023-02-12T14:28:46;27.85;;;10.57;;
2824;SDS011;1420;51.324;12.344;2023-02-12T14:31:21;28.60;;;10.95;;
2824;SDS011;1420;51.324;12.344;2023-02-12T14:33:48;30.60;;;12.18;;
2824;SDS011;1420;51.324;12.344;2023-02-12T14:36:16;30.42;;;11.60;;
2824;SDS011;1420;51.324;12.344;2023-02-12T14:38:56;32.28;;;11.43;;
2824;SDS011;1420;51.324;12.344;2023-02-12T14:41:25;28.95;;;11.57;;
2824;SDS011;1420;51.324;12.344;2023-02-12T14:46:44;30.37;;;10.05;;
2824;SDS011;1420;51.324;12.344;2023-02-12T14:49:17;30.18;;;10.80;;
2824;SDS011;1420;51.324;12.344;2023-02-12T14:52:00;29.85;;;10.88;;
2824;SDS011;1420;51.324;12.344;2023-02-12T14:54:33;34.50;;;10.40;;
2824;SDS011;1420;51.324;12.344;2023-02-12T14:57:02;33.95;;;12.87;;
2824;SDS011;1420;51.324;12.344;2023-02-12T14:59:29;32.95;;;12.50;;
2824;SDS011;1420;51.324;12.344;2023-02-12T15:01:56;32.88;;;11.17;;
2824;SDS011;1420;51.324;12.344;2023-02-12T15:04:25;30.25;;;12.20;;
2824;SDS011;1420;51.324;12.344;2023-02-12T15:06:53;30.58;;;10.77;;
2824;SDS011;1420;51.324;12.344;2023-02-12T15:09:24;28.98;;;12.85;;
2824;SDS011;1420;51.324;12.344;2023-02-12T15:11:49;36.08;;;13.00;;
2824;SDS011;1420;51.324;12.344;2023-02-12T15:14:18;29.22;;;9.23;;
2824;SDS011;1420;51.324;12.344;2023-02-12T15:16:46;33.67;;;12.25;;
2824;SDS011;1420;51.324;12.344;2023-02-12T15:19:16;32.20;;;15.07;;
2824;SDS011;1420;51.324;12.344;2023-02-12T15:21:56;30.57;;;10.42;;
2824;SDS011;1420;51.324;12.344;2023-02-12T15:24:25;29.93;;;10.32;;
2824;SDS011;1420;51.324;12.344;2023-02-12T15:26:54;28.12;;;10.68;;